Allen, Texas
Current Conditions -  °F | °C
As of 8:53 PM on Saturday 24 Jan 2015 (Local Time) from KTKI Reporting Station
Clear Clear  
Wind Chill: 38°   Ceiling: Unl
Heat Index: 42°   Visibility: 10mi
Dew Point: 35°   Wind: 7mph
Humidity: 76%   Direction: 210°SSW
Pressure: 30"   Gusts: NA
Location:  33.1°N, 96.67°W
Report Text: KTKI 250253Z 21006KT 10SM CLR 06/02 A3000 RMK AO2 SLP173 T00560017 58006
Loading
Personal Weather Stations






























Interactive Weather Map New forecast layout! Learn more

10-Day Weather Forecast

Advertisements
Track Severe Weather on mobile